Time;durP1;ratioP1;P1;durP2;ratioP2;P2;SDS_P1;SDS_P2;PMS_P1;PMS_P2;Temp;Humidity;BMP_temperature;BMP_pressure;BME280_temperature;BME280_humidity;BME280_pressure;Samples;Min_cycle;Max_cycle;Signal;HPM_P1;HPM_P2
2023/03/25 00:00:25;;;;;;;2.30;1.83;;;;;;;14.95;54.38;98177.69;7080217;27;20255;-78
2023/03/25 00:03:49;;;;;;;2.50;1.67;;;;;;;14.74;55.35;98179.25;7080445;28;20706;-79
2023/03/25 00:07:11;;;;;;;4.97;1.90;;;;;;;14.75;55.13;98193.66;7080538;28;20643;-78
2023/03/25 00:10:32;;;;;;;2.13;1.93;;;;;;;14.43;56.68;98209.66;7079730;28;20602;-78
2023/03/25 00:13:55;;;;;;;2.93;1.80;;;;;;;14.17;56.81;98207.50;7080142;28;20294;-78
2023/03/25 00:17:16;;;;;;;2.23;1.73;;;;;;;13.91;56.81;98172.84;7080341;28;20673;-78
2023/03/25 00:20:39;;;;;;;1.80;1.70;;;;;;;13.90;57.89;98194.75;7079035;28;20204;-76
2023/03/25 00:24:01;;;;;;;1.70;1.60;;;;;;;13.92;57.72;98184.53;7079912;28;20229;-76
2023/03/25 00:27:22;;;;;;;1.60;1.50;;;;;;;13.49;55.34;98184.97;7080170;28;20662;-77
2023/03/25 00:30:45;;;;;;;2.13;1.70;;;;;;;13.23;55.54;98185.47;7079394;28;20683;-77
2023/03/25 00:34:07;;;;;;;1.50;1.40;;;;;;;13.80;54.29;98184.53;7080108;28;20231;-76
2023/03/25 00:37:29;;;;;;;1.33;1.33;;;;;;;13.77;54.50;98181.50;7080014;28;20213;-76
2023/03/25 00:40:51;;;;;;;5.03;1.70;;;;;;;13.74;54.52;98198.25;7072594;28;20199;-76
2023/03/25 00:44:13;;;;;;;1.63;1.50;;;;;;;13.84;54.14;98191.13;7051365;28;20699;-76
2023/03/25 00:47:36;;;;;;;1.70;1.60;;;;;;;14.03;53.28;98178.19;7051412;28;20292;-76
2023/03/25 00:50:57;;;;;;;2.77;1.57;;;;;;;13.81;52.58;98186.19;7050970;28;20261;-76
2023/03/25 00:54:21;;;;;;;2.77;1.70;;;;;;;13.98;52.83;98168.09;7050987;28;20297;-76
2023/03/25 00:57:42;;;;;;;2.63;1.60;;;;;;;13.70;52.65;98187.03;7050617;28;20200;-76
2023/03/25 01:01:11;;;;;;;2.40;1.40;;;;;;;13.91;52.79;98170.13;7050610;28;20192;-76
2023/03/25 01:04:36;;;;;;;1.40;1.30;;;;;;;14.31;51.68;98148.41;7051323;28;20564;-76
2023/03/25 01:07:58;;;;;;;2.57;1.50;;;;;;;14.24;51.05;98105.19;7053322;28;20667;-76
2023/03/25 01:11:21;;;;;;;1.50;1.40;;;;;;;14.21;52.74;98148.25;7054405;28;20210;-76
2023/03/25 01:14:43;;;;;;;1.50;1.40;;;;;;;14.31;52.37;98141.09;7056063;28;20548;-77
2023/03/25 01:18:05;;;;;;;1.60;1.50;;;;;;;13.87;52.08;98136.44;7056225;28;20201;-76
2023/03/25 01:21:28;;;;;;;3.03;1.70;;;;;;;14.14;52.17;98140.22;7055528;28;20228;-76
2023/03/25 01:24:49;;;;;;;1.83;1.63;;;;;;;14.12;53.05;98157.78;7055917;28;20209;-78
2023/03/25 01:28:11;;;;;;;1.47;1.33;;;;;;;14.21;51.73;98143.63;7056491;28;20238;-78
2023/03/25 01:31:32;;;;;;;1.60;1.50;;;;;;;14.22;52.76;98150.69;7055136;28;20639;-77
2023/03/25 01:34:54;;;;;;;3.30;1.77;;;;;;;14.28;51.86;98140.78;7055730;28;20233;-77
2023/03/25 01:38:17;;;;;;;2.43;1.43;;;;;;;13.89;53.74;98137.03;7055467;28;20211;-76
2023/03/25 01:41:38;;;;;;;1.93;1.60;;;;;;;13.76;53.86;98125.66;7055365;28;20684;-77
2023/03/25 01:45:20;;;;;;;2.13;1.93;;;;;;;13.39;55.44;98125.19;7058918;28;20284;-76
2023/03/25 01:48:44;;;;;;;1.63;1.53;;;;;;;13.60;55.03;98146.22;7069569;28;20744;-76
2023/03/25 01:52:09;;;;;;;4.63;1.70;;;;;;;13.07;55.92;98142.06;7056372;28;20261;-77
2023/03/25 01:55:33;;;;;;;1.77;1.67;;;;;;;13.48;55.49;98114.81;7056682;28;20248;-77
2023/03/25 01:58:56;;;;;;;1.90;1.80;;;;;;;13.75;54.02;98141.09;7056519;28;20685;-77
2023/03/25 02:02:18;;;;;;;2.10;1.70;;;;;;;13.30;55.14;98139.34;7054868;28;20628;-78
2023/03/25 02:05:42;;;;;;;2.43;1.80;;;;;;;13.40;54.03;98126.00;7055462;28;20254;-78
2023/03/25 02:09:07;;;;;;;4.90;2.10;;;;;;;13.31;54.40;98125.56;7055711;28;20198;-77
2023/03/25 02:12:30;;;;;;;2.43;1.80;;;;;;;13.39;53.88;98116.25;7054377;28;20279;-77
2023/03/25 02:16:06;;;;;;;1.80;1.70;;;;;;;13.83;52.42;98100.06;7054693;28;20229;-76
2023/03/25 02:20:06;;;;;;;2.07;1.70;;;;;;;13.54;53.08;98108.41;7054675;28;20616;-77
2023/03/25 02:23:43;;;;;;;3.07;1.90;;;;;;;13.99;52.54;98107.41;7050187;28;20282;-76
2023/03/25 02:27:16;;;;;;;4.00;2.20;;;;;;;14.18;52.29;98103.44;7053802;28;20279;-76
2023/03/25 02:31:08;;;;;;;2.80;2.03;;;;;;;14.19;52.71;98117.81;7053856;28;20738;-76
2023/03/25 02:34:55;;;;;;;2.60;1.87;;;;;;;14.30;52.39;98117.78;7054173;28;20269;-76
2023/03/25 02:38:25;;;;;;;5.10;2.03;;;;;;;13.84;53.58;98128.81;7054255;28;20189;-76
2023/03/25 02:41:51;;;;;;;1.90;1.80;;;;;;;13.87;53.06;98135.63;7059998;27;20230;-76
2023/03/25 02:45:15;;;;;;;2.77;1.60;;;;;;;13.87;53.46;98122.91;7081822;27;20627;-76
2023/03/25 02:48:40;;;;;;;1.70;1.60;;;;;;;13.94;53.22;98106.50;7082242;27;20252;-76
2023/03/25 02:52:07;;;;;;;4.00;1.70;;;;;;;13.89;53.71;98141.63;7081821;27;20232;-76
2023/03/25 02:55:32;;;;;;;3.00;1.73;;;;;;;13.94;53.55;98139.84;7084893;27;20211;-77
2023/03/25 02:58:55;;;;;;;2.67;1.80;;;;;;;13.79;53.88;98144.97;7083011;27;20806;-78
2023/03/25 03:02:18;;;;;;;1.90;1.80;;;;;;;12.87;56.35;98166.75;7081217;27;20228;-77
2023/03/25 03:05:43;;;;;;;1.83;1.60;;;;;;;13.33;56.21;98185.69;7081684;27;20213;-77
2023/03/25 03:09:21;;;;;;;1.50;1.50;;;;;;;12.33;57.13;98179.75;7081506;27;20199;-77
2023/03/25 03:12:55;;;;;;;1.60;1.50;;;;;;;12.23;57.12;98157.84;7075821;27;20589;-77
2023/03/25 03:16:23;;;;;;;2.53;1.43;;;;;;;12.25;57.44;98159.25;7062336;27;20263;-77
2023/03/25 03:19:48;;;;;;;1.60;1.50;;;;;;;12.57;57.70;98159.81;7080938;27;20194;-77
2023/03/25 03:23:13;;;;;;;1.37;1.30;;;;;;;12.19;57.67;98157.50;7079586;27;20224;-77
2023/03/25 03:26:38;;;;;;;1.80;1.70;;;;;;;12.10;58.37;98139.94;7080582;27;20200;-76
2023/03/25 03:30:05;;;;;;;2.50;1.60;;;;;;;12.09;57.23;98122.09;7080270;27;20634;-76
2023/03/25 03:33:31;;;;;;;4.10;1.70;;;;;;;12.06;56.91;98116.31;7080487;27;20715;-76
2023/03/25 03:36:55;;;;;;;1.50;1.40;;;;;;;11.79;58.98;98159.09;7081198;27;20572;-77
2023/03/25 03:40:19;;;;;;;1.63;1.50;;;;;;;12.73;56.49;98161.78;7073822;27;20200;-77
2023/03/25 03:43:44;;;;;;;2.70;2.50;;;;;;;12.92;55.52;98171.47;7068231;27;20307;-77
2023/03/25 03:47:09;;;;;;;2.00;1.90;;;;;;;12.78;55.12;98151.09;7052601;28;20207;-77
2023/03/25 03:50:33;;;;;;;2.10;1.63;;;;;;;11.92;56.58;98163.50;7052289;28;20714;-76
2023/03/25 03:53:57;;;;;;;2.97;1.67;;;;;;;12.71;54.57;98182.84;7068781;28;20318;-76
2023/03/25 03:57:21;;;;;;;1.60;1.50;;;;;;;12.24;54.28;98203.56;7053271;28;20213;-77
2023/03/25 04:00:44;;;;;;;1.70;1.60;;;;;;;12.46;52.76;98174.13;7052499;28;20692;-76
2023/03/25 04:04:10;;;;;;;1.60;1.40;;;;;;;12.66;51.73;98207.91;7071422;27;20260;-79
2023/03/25 04:07:37;;;;;;;1.30;1.20;;;;;;;12.75;51.91;98202.97;7079082;27;20213;-78
2023/03/25 04:11:02;;;;;;;1.77;1.60;;;;;;;12.62;52.18;98189.69;7078307;28;20683;-78
2023/03/25 04:14:24;;;;;;;1.20;1.20;;;;;;;12.60;51.83;98214.25;7078300;28;20262;-78
2023/03/25 04:17:46;;;;;;;1.70;1.60;;;;;;;11.83;53.88;98203.50;7078407;28;20210;-78
2023/03/25 04:21:14;;;;;;;1.63;1.53;;;;;;;12.29;53.54;98205.56;7079922;28;20203;-78
2023/03/25 04:24:36;;;;;;;3.57;2.83;;;;;;;12.74;52.54;98198.63;7080475;28;20260;-79
2023/03/25 04:27:58;;;;;;;2.03;1.87;;;;;;;12.77;52.00;98195.44;7081004;28;20569;-79
2023/03/25 04:31:20;;;;;;;1.77;1.67;;;;;;;12.84;52.22;98188.88;7079808;28;20217;-79
2023/03/25 04:34:42;;;;;;;1.43;1.40;;;;;;;12.32;53.59;98188.88;7080733;28;20225;-78
2023/03/25 04:38:05;;;;;;;1.60;1.50;;;;;;;12.43;53.87;98185.38;7080535;28;20587;-79
2023/03/25 04:41:27;;;;;;;2.23;1.40;;;;;;;12.48;53.86;98188.22;7077961;27;20242;-79
2023/03/25 04:44:48;;;;;;;2.00;1.90;;;;;;;12.66;53.46;98194.38;7058439;28;20200;-78
2023/03/25 04:48:22;;;;;;;1.50;1.40;;;;;;;12.68;53.62;98204.97;7057578;28;20238;-77
2023/03/25 04:51:44;;;;;;;2.10;1.90;;;;;;;12.72;53.40;98198.84;7056296;28;20232;-78
2023/03/25 04:55:08;;;;;;;2.37;1.57;;;;;;;12.26;54.43;98208.72;7057545;28;20585;-78
2023/03/25 04:58:29;;;;;;;1.60;1.50;;;;;;;12.54;54.18;98211.63;7057493;28;20288;-77
2023/03/25 05:01:51;;;;;;;2.20;2.00;;;;;;;12.82;53.29;98196.41;7057591;28;20311;-78
2023/03/25 05:05:17;;;;;;;1.70;1.60;;;;;;;12.42;53.58;98195.38;7067171;28;20205;-79
2023/03/25 05:08:38;;;;;;;2.83;1.53;;;;;;;12.66;53.46;98223.28;7057979;28;20208;-78
2023/03/25 05:12:01;;;;;;;3.07;1.70;;;;;;;12.07;53.25;98143.13;7056227;28;20224;-78
2023/03/25 05:15:23;;;;;;;1.90;1.70;;;;;;;12.66;53.15;98213.31;7056518;28;20247;-77
2023/03/25 05:18:44;;;;;;;2.30;1.70;;;;;;;12.60;53.20;98216.09;7056344;28;20211;-78
2023/03/25 05:22:06;;;;;;;2.00;1.60;;;;;;;12.20;53.84;98226.69;7055410;28;20637;-79
2023/03/25 05:25:28;;;;;;;1.47;1.40;;;;;;;12.51;53.20;98221.03;7056037;28;20207;-79
2023/03/25 05:28:55;;;;;;;2.67;1.90;;;;;;;12.58;53.23;98220.94;7055946;28;20264;-79
2023/03/25 05:32:17;;;;;;;2.63;1.60;;;;;;;12.47;53.73;98225.25;7054982;28;20267;-78
2023/03/25 05:35:38;;;;;;;1.97;1.87;;;;;;;12.66;53.79;98216.00;7055384;28;20227;-78
2023/03/25 05:39:00;;;;;;;1.70;1.60;;;;;;;12.25;54.64;98234.09;7055736;28;20252;-78
2023/03/25 05:42:22;;;;;;;1.50;1.50;;;;;;;12.63;53.66;98227.28;7070312;27;20765;-78
2023/03/25 05:45:45;;;;;;;1.80;1.70;;;;;;;12.15;54.23;98236.56;7055950;28;20204;-77
2023/03/25 05:49:07;;;;;;;1.93;1.83;;;;;;;12.26;54.78;98235.75;7056088;28;20612;-77
2023/03/25 05:52:28;;;;;;;3.87;2.30;;;;;;;12.61;53.51;98229.41;7054077;28;20285;-76
2023/03/25 05:55:50;;;;;;;2.50;1.83;;;;;;;12.73;53.18;98222.13;7052718;28;20284;-77
2023/03/25 05:59:13;;;;;;;4.03;1.90;;;;;;;12.62;54.35;98217.53;7054616;28;20222;-79
2023/03/25 06:02:37;;;;;;;2.47;1.80;;;;;;;12.96;53.48;98226.78;7054795;28;20240;-77
2023/03/25 06:05:59;;;;;;;3.83;2.20;;;;;;;12.64;54.74;98220.81;7053915;28;20565;-78
2023/03/25 06:09:20;;;;;;;3.10;1.80;;;;;;;12.46;55.68;98244.41;7053996;28;20270;-78
2023/03/25 06:12:42;;;;;;;4.43;2.10;;;;;;;12.48;55.73;98235.03;7053720;28;20635;-77
2023/03/25 06:16:05;;;;;;;2.47;2.20;;;;;;;12.53;55.81;98245.97;7054246;28;20220;-78
2023/03/25 06:19:28;;;;;;;2.83;2.40;;;;;;;12.21;56.20;98249.94;7054344;28;20719;-77
2023/03/25 06:22:49;;;;;;;4.17;2.20;;;;;;;12.35;55.74;98258.72;7053628;28;20231;-77
2023/03/25 06:26:11;;;;;;;2.80;2.47;;;;;;;12.45;55.52;98257.09;7053579;28;20197;-82
2023/03/25 06:29:33;;;;;;;3.97;2.10;;;;;;;12.75;54.58;98238.94;7053863;28;20272;-78
2023/03/25 06:32:54;;;;;;;4.97;2.47;;;;;;;12.81;54.32;98261.56;7053893;28;20267;-78
2023/03/25 06:36:18;;;;;;;3.13;1.73;;;;;;;12.86;54.63;98248.97;7054310;28;20220;-79
2023/03/25 06:39:40;;;;;;;2.87;1.80;;;;;;;12.87;54.19;98260.63;7054087;28;20253;-79
2023/03/25 06:43:01;;;;;;;2.03;1.80;;;;;;;13.09;53.57;98259.06;7062883;27;20232;-82
2023/03/25 06:46:23;;;;;;;4.03;1.90;;;;;;;13.10;53.38;98266.91;7083709;27;20247;-82
2023/03/25 06:49:45;;;;;;;2.87;1.90;;;;;;;13.24;52.86;98262.94;7074537;27;20250;-77
2023/03/25 06:53:07;;;;;;;3.97;2.30;;;;;;;13.59;51.81;98268.34;7081095;27;20700;-77
2023/03/25 06:56:29;;;;;;;2.53;1.70;;;;;;;13.72;50.41;98254.53;7080701;27;20279;-77
2023/03/25 06:59:50;;;;;;;7.47;2.77;;;;;;;12.86;52.10;98254.38;7080528;27;20720;-77
2023/03/25 07:03:12;;;;;;;8.13;3.00;;;;;;;12.91;53.00;98259.91;7081521;27;20341;-77
2023/03/25 07:06:33;;;;;;;3.97;2.50;;;;;;;13.62;51.47;98265.16;7080338;27;20207;-77
2023/03/25 07:09:56;;;;;;;2.90;2.20;;;;;;;14.22;49.18;98255.63;7071964;27;20606;-77
2023/03/25 07:13:17;;;;;;;2.80;1.83;;;;;;;13.79;49.61;98266.88;7053141;28;20273;-77
2023/03/25 07:16:39;;;;;;;2.33;1.80;;;;;;;14.14;49.29;98250.53;7053365;28;20305;-82
2023/03/25 07:20:00;;;;;;;4.73;2.00;;;;;;;14.12;49.12;98263.50;7076382;27;20679;-78
2023/03/25 07:23:22;;;;;;;3.03;2.00;;;;;;;14.17;48.76;98258.19;7080635;27;20279;-78
2023/03/25 07:26:45;;;;;;;3.37;1.80;;;;;;;13.53;49.56;98266.56;7081456;27;20262;-77
2023/03/25 07:30:08;;;;;;;3.13;2.10;;;;;;;13.70;50.07;98218.72;7080971;27;20571;-78
2023/03/25 07:33:29;;;;;;;2.07;1.70;;;;;;;13.29;50.55;98262.22;7080802;27;20224;-78
2023/03/25 07:36:51;;;;;;;2.60;1.60;;;;;;;13.16;52.09;98270.59;7080577;27;20282;-78
2023/03/25 07:40:13;;;;;;;2.53;1.77;;;;;;;13.69;50.58;98263.16;7080248;27;20292;-78
2023/03/25 07:43:36;;;;;;;3.17;2.00;;;;;;;14.58;49.77;98257.94;7064472;27;20232;-78
2023/03/25 07:46:57;;;;;;;3.33;2.00;;;;;;;15.18;47.95;98253.53;7051994;28;20202;-78
2023/03/25 07:50:19;;;;;;;2.07;1.70;;;;;;;15.14;48.13;98260.53;7051714;28;20208;-78
2023/03/25 07:53:43;;;;;;;3.50;1.90;;;;;;;14.74;48.33;98265.28;7051885;28;20711;-78
2023/03/25 07:57:04;;;;;;;2.53;1.73;;;;;;;15.39;47.34;98239.25;7051953;28;20619;-78
2023/03/25 08:00:27;;;;;;;2.97;1.60;;;;;;;16.24;46.20;98248.53;7051270;28;20221;-78
2023/03/25 08:03:49;;;;;;;1.47;1.37;;;;;;;16.24;45.74;98254.81;7055725;27;20222;-78
2023/03/25 08:07:11;;;;;;;2.53;1.50;;;;;;;16.91;42.47;98236.19;7092899;27;20259;-80
2023/03/25 08:10:33;;;;;;;1.70;1.53;;;;;;;16.61;42.35;98239.44;7099213;27;20650;-78
2023/03/25 08:13:55;;;;;;;1.57;1.47;;;;;;;16.20;44.05;98240.06;7112559;27;20226;-80
2023/03/25 08:17:18;;;;;;;1.37;1.27;;;;;;;16.36;44.25;98255.47;7109230;27;20290;-78
2023/03/25 08:20:40;;;;;;;2.57;1.63;;;;;;;15.79;44.90;98248.78;7114261;27;20243;-78
2023/03/25 08:24:03;;;;;;;1.53;1.40;;;;;;;15.46;45.50;98240.69;7115713;27;20278;-81
2023/03/25 08:27:24;;;;;;;2.57;1.60;;;;;;;15.89;44.45;98235.34;7114912;27;20205;-78
2023/03/25 08:30:48;;;;;;;1.93;1.50;;;;;;;16.42;43.59;98240.88;7114802;27;20202;-80
2023/03/25 08:34:11;;;;;;;3.00;1.53;;;;;;;16.13;43.42;98255.75;7115131;27;20233;-78
2023/03/25 08:37:34;;;;;;;4.07;1.47;;;;;;;16.42;43.83;98248.22;7113874;27;20227;-77
2023/03/25 08:40:55;;;;;;;1.60;1.50;;;;;;;16.16;44.78;98232.66;7066643;27;20205;-77
2023/03/25 08:44:17;;;;;;;1.90;1.27;;;;;;;15.39;45.49;98245.47;7056524;28;20224;-78
2023/03/25 08:47:38;;;;;;;2.63;1.60;;;;;;;15.45;46.07;98238.25;7057546;28;20722;-78
2023/03/25 08:51:01;;;;;;;2.33;1.47;;;;;;;15.03;46.76;98240.53;7056462;28;20220;-74
2023/03/25 08:54:23;;;;;;;2.23;1.63;;;;;;;15.40;46.54;98243.59;7055997;28;20288;-76
2023/03/25 08:57:44;;;;;;;1.73;1.47;;;;;;;14.87;48.40;98245.97;7062056;27;20213;-76
2023/03/25 09:01:06;;;;;;;1.40;1.30;;;;;;;14.30;50.67;98245.22;7083727;27;20205;-76
2023/03/25 09:04:28;;;;;;;1.53;1.37;;;;;;;13.97;52.95;98258.59;7084609;27;20206;-76
2023/03/25 09:07:51;;;;;;;2.67;1.50;;;;;;;14.05;52.43;98262.84;7085104;27;20873;-76
2023/03/25 09:11:14;;;;;;;1.17;1.17;;;;;;;13.86;52.86;98264.06;7084820;27;20207;-75
2023/03/25 09:14:35;;;;;;;2.00;1.37;;;;;;;13.53;54.08;98262.00;7087665;27;20571;-78
2023/03/25 09:17:57;;;;;;;1.43;1.37;;;;;;;13.44;53.69;98265.25;7086075;27;20233;-76
2023/03/25 09:21:19;;;;;;;2.50;1.67;;;;;;;13.71;53.94;98250.19;7084057;27;20210;-76
2023/03/25 09:24:42;;;;;;;1.60;1.50;;;;;;;14.00;54.39;98239.16;7086205;27;20209;-76
2023/03/25 09:28:03;;;;;;;3.63;2.33;;;;;;;14.48;54.67;98250.44;7090297;27;20299;-82
2023/03/25 09:31:25;;;;;;;3.13;1.80;;;;;;;15.54;51.52;98240.28;7080117;27;20676;-79
2023/03/25 09:34:47;;;;;;;1.67;1.47;;;;;;;15.63;51.37;98227.91;7057667;28;20230;-77
2023/03/25 09:38:08;;;;;;;1.40;1.40;;;;;;;16.14;49.28;98224.75;7068536;27;20220;-76
2023/03/25 09:41:46;;;;;;;1.60;1.50;;;;;;;15.75;51.80;98225.88;7083101;27;20286;-77
2023/03/25 09:45:17;;;;;;;1.77;1.67;;;;;;;16.32;52.05;98231.75;7082327;27;20249;-77
2023/03/25 09:48:41;;;;;;;2.47;1.90;;;;;;;15.83;51.07;98230.06;7083880;27;20249;-77
2023/03/25 09:52:03;;;;;;;2.80;2.60;;;;;;;16.03;51.99;98228.44;7082244;27;20287;-77
2023/03/25 09:55:26;;;;;;;2.83;2.60;;;;;;;16.55;51.11;98231.47;7083983;27;20886;-80
2023/03/25 09:58:51;;;;;;;1.40;1.30;;;;;;;17.29;47.68;98233.22;7083743;27;20293;-78
2023/03/25 10:02:23;;;;;;;2.13;1.50;;;;;;;17.13;49.72;98217.84;7083397;27;20268;-77
2023/03/25 10:05:53;;;;;;;1.77;1.20;;;;;;;17.31;47.69;98212.81;7077539;27;20195;-78
2023/03/25 10:09:25;;;;;;;1.30;1.20;;;;;;;16.79;50.23;98220.03;7083268;27;20191;-78
2023/03/25 10:12:52;;;;;;;1.50;1.40;;;;;;;16.90;47.26;98231.81;7082689;27;20635;-78
2023/03/25 10:16:22;;;;;;;2.90;1.93;;;;;;;15.84;49.93;98227.09;7082634;27;20227;-80
2023/03/25 10:19:53;;;;;;;1.87;1.67;;;;;;;16.30;50.24;98209.41;7080440;27;21262;-77
2023/03/25 10:23:22;;;;;;;1.50;1.40;;;;;;;15.13;51.11;98202.69;7064645;27;20226;-77
2023/03/25 10:26:47;;;;;;;2.00;1.53;;;;;;;15.33;52.36;98210.38;7073383;27;20205;-76
2023/03/25 10:30:12;;;;;;;1.50;1.40;;;;;;;15.28;51.22;98215.69;7081453;27;20293;-76
2023/03/25 10:33:37;;;;;;;1.53;1.43;;;;;;;16.64;51.51;98217.16;7081657;27;20233;-77
2023/03/25 10:36:59;;;;;;;1.67;1.40;;;;;;;16.55;48.05;98194.22;7075729;27;20314;-79
2023/03/25 10:40:24;;;;;;;1.20;1.10;;;;;;;16.83;49.13;98198.53;7053945;28;20694;-77
2023/03/25 10:43:45;;;;;;;3.17;1.23;;;;;;;16.35;49.71;98213.00;7064992;27;20219;-77
2023/03/25 10:47:10;;;;;;;1.27;1.23;;;;;;;17.07;47.62;98202.56;7086629;27;20232;-77
2023/03/25 10:50:33;;;;;;;2.50;2.10;;;;;;;16.61;48.40;98208.69;7084032;27;20661;-78
2023/03/25 10:53:55;;;;;;;3.07;1.80;;;;;;;16.04;46.76;98193.91;7080217;27;20259;-78
2023/03/25 10:57:19;;;;;;;6.70;4.30;;;;;;;16.25;47.43;98184.88;7079825;27;20230;-81
2023/03/25 11:00:40;;;;;;;2.80;1.87;;;;;;;15.92;46.43;98179.63;7056968;27;20253;-79
2023/03/25 11:04:03;;;;;;;1.43;1.33;;;;;;;16.01;47.68;98200.69;7078636;27;20223;-79
2023/03/25 11:07:30;;;;;;;1.53;1.43;;;;;;;16.24;46.39;98191.41;7078345;27;20202;-76
2023/03/25 11:10:56;;;;;;;2.40;1.67;;;;;;;15.87;47.81;98183.09;7076600;27;20207;-75
2023/03/25 11:14:22;;;;;;;1.50;1.40;;;;;;;16.47;47.13;98197.41;7080710;27;20267;-75
2023/03/25 11:17:44;;;;;;;1.80;1.30;;;;;;;16.11;46.82;98157.25;7080549;27;20243;-75
2023/03/25 11:21:07;;;;;;;1.57;1.47;;;;;;;16.28;46.86;98168.88;7079617;27;20328;-82
2023/03/25 11:24:32;;;;;;;1.90;1.20;;;;;;;15.92;45.29;98196.75;7079588;27;20207;-77
2023/03/25 11:27:56;;;;;;;1.33;1.20;;;;;;;16.09;45.13;98192.06;7080464;27;20290;-79
2023/03/25 11:31:19;;;;;;;1.50;1.40;;;;;;;16.79;44.28;98197.41;7079408;27;20254;-77
2023/03/25 11:34:41;;;;;;;1.40;1.30;;;;;;;16.54;43.80;98210.78;7080360;27;20207;-78
2023/03/25 11:38:15;;;;;;;1.83;1.20;;;;;;;16.43;43.34;98182.66;7080261;27;20226;-77
2023/03/25 11:41:37;;;;;;;1.30;1.20;;;;;;;15.99;43.34;98170.19;7079911;27;20281;-77
2023/03/25 11:45:01;;;;;;;1.47;1.30;;;;;;;16.48;42.92;98180.00;7080292;27;20298;-77
2023/03/25 11:48:23;;;;;;;1.60;1.30;;;;;;;16.84;42.45;98176.50;7079855;27;20204;-77
2023/03/25 11:51:45;;;;;;;3.80;1.27;;;;;;;17.41;42.32;98176.66;7078840;27;20371;-77
2023/03/25 11:55:16;;;;;;;1.30;1.20;;;;;;;17.84;41.52;98168.16;7080160;27;20204;-78
2023/03/25 11:58:39;;;;;;;1.33;1.30;;;;;;;17.53;40.70;98155.47;7079661;27;20223;-77
2023/03/25 12:02:02;;;;;;;3.67;1.57;;;;;;;17.49;40.06;98143.44;7079245;27;20766;-77
2023/03/25 12:05:24;;;;;;;2.17;1.63;;;;;;;17.58;40.12;98152.78;7078949;27;20204;-81
2023/03/25 12:08:50;;;;;;;2.07;1.27;;;;;;;17.74;38.93;98168.94;7074905;27;20259;-78
2023/03/25 12:12:27;;;;;;;1.53;1.30;;;;;;;17.38;40.16;98141.75;7079658;27;20290;-80
2023/03/25 12:15:56;;;;;;;1.20;1.10;;;;;;;17.65;40.02;98150.63;7076783;28;20203;-77
2023/03/25 12:19:23;;;;;;;1.90;1.23;;;;;;;16.66;40.08;98173.34;7077405;28;20640;-78
2023/03/25 12:22:55;;;;;;;1.67;1.40;;;;;;;16.21;41.86;98181.84;7069478;28;20696;-77
2023/03/25 12:26:19;;;;;;;1.97;1.57;;;;;;;17.12;41.76;98157.13;7070052;28;20238;-77
2023/03/25 12:29:47;;;;;;;1.10;1.10;;;;;;;17.79;39.93;98149.03;7078458;28;20254;-79
2023/03/25 12:33:20;;;;;;;2.00;1.50;;;;;;;17.39;39.74;98166.03;7072417;28;20697;-78
2023/03/25 12:36:52;;;;;;;1.27;1.10;;;;;;;16.90;40.09;98180.91;7080254;28;20211;-75
2023/03/25 12:40:39;;;;;;;2.23;1.67;;;;;;;17.03;38.93;98164.13;7061820;28;20287;-78
2023/03/25 12:44:03;;;;;;;1.40;1.30;;;;;;;17.28;39.23;98167.00;7064039;28;20250;-76
2023/03/25 12:47:30;;;;;;;1.80;1.50;;;;;;;17.36;38.73;98193.78;7078694;28;20355;-76
2023/03/25 12:50:59;;;;;;;1.10;1.00;;;;;;;16.86;40.61;98176.25;7078359;28;20356;-78
2023/03/25 12:54:37;;;;;;;3.60;1.60;;;;;;;16.85;40.87;98183.59;7081204;28;20223;-77
2023/03/25 12:58:12;;;;;;;2.50;1.43;;;;;;;16.40;41.36;98202.22;7079964;28;20276;-80
2023/03/25 13:01:41;;;;;;;2.17;1.50;;;;;;;15.76;44.27;98211.22;7080247;28;20371;-76
2023/03/25 13:05:14;;;;;;;3.93;1.50;;;;;;;15.00;47.24;98224.75;7079835;27;20246;-77
2023/03/25 13:08:42;;;;;;;2.03;1.37;;;;;;;15.40;47.63;98197.41;7068422;27;20203;-78
2023/03/25 13:12:10;;;;;;;3.27;1.90;;;;;;;15.95;47.62;98206.28;7084038;27;20231;-77
2023/03/25 13:15:34;;;;;;;4.33;1.50;;;;;;;17.01;45.81;98207.16;7084470;27;20191;-78
2023/03/25 13:19:01;;;;;;;1.50;1.40;;;;;;;17.07;44.64;98192.50;7084448;27;20275;-76
2023/03/25 13:22:25;;;;;;;2.13;1.50;;;;;;;17.55;43.12;98199.63;7083391;27;20588;-77
2023/03/25 13:25:51;;;;;;;1.43;1.03;;;;;;;17.16;41.67;98199.06;7084172;27;20343;-77
2023/03/25 13:29:25;;;;;;;2.20;1.20;;;;;;;16.40;43.29;98175.00;7083839;27;20207;-78
2023/03/25 13:32:49;;;;;;;2.23;1.33;;;;;;;17.00;42.13;98199.22;7083379;27;20283;-79
2023/03/25 13:36:16;;;;;;;3.50;1.67;;;;;;;17.24;42.17;98179.53;7059381;27;20233;-77
2023/03/25 13:39:51;;;;;;;2.50;1.60;;;;;;;17.26;40.98;98188.25;7055354;28;20603;-78
2023/03/25 13:43:19;;;;;;;3.53;1.50;;;;;;;17.58;40.10;98197.19;7055368;28;20314;-77
2023/03/25 13:46:44;;;;;;;2.40;1.30;;;;;;;16.59;40.47;98191.78;7055861;28;20196;-78
2023/03/25 13:50:10;;;;;;;3.83;1.30;;;;;;;17.88;40.29;98174.72;7055329;28;20215;-79
2023/03/25 13:53:36;;;;;;;2.93;1.60;;;;;;;17.86;39.00;98190.53;7055032;28;20236;-77
2023/03/25 13:57:09;;;;;;;2.70;1.80;;;;;;;17.63;39.20;98191.78;7055293;28;20247;-76
2023/03/25 14:00:52;;;;;;;2.23;1.30;;;;;;;17.44;39.99;98181.56;7054573;28;20641;-78
2023/03/25 14:04:37;;;;;;;1.70;1.17;;;;;;;17.57;39.10;98164.78;7055279;28;20587;-79
2023/03/25 14:08:30;;;;;;;3.63;1.50;;;;;;;18.28;38.58;98163.94;7055033;28;20206;-78
2023/03/25 14:11:56;;;;;;;1.53;1.30;;;;;;;18.66;38.12;98171.66;7054425;28;20229;-78
2023/03/25 14:15:20;;;;;;;1.73;1.10;;;;;;;18.00;38.10;98178.03;7054676;28;20256;-77
2023/03/25 14:18:44;;;;;;;2.10;1.00;;;;;;;17.63;38.46;98193.69;7055046;28;20320;-78
2023/03/25 14:22:13;;;;;;;1.80;1.43;;;;;;;16.53;40.09;98215.44;7053971;28;20224;-79
2023/03/25 14:25:38;;;;;;;2.90;1.47;;;;;;;15.42;43.55;98222.44;7054887;28;20782;-76
2023/03/25 14:29:04;;;;;;;2.67;1.50;;;;;;;14.69;49.01;98255.16;7055222;28;20208;-76
2023/03/25 14:32:34;;;;;;;2.53;1.60;;;;;;;14.87;51.72;98264.97;7053800;28;20228;-77
2023/03/25 14:35:57;;;;;;;1.90;1.40;;;;;;;15.24;52.06;98247.94;7054101;28;20241;-77
2023/03/25 14:39:40;;;;;;;2.23;1.60;;;;;;;15.41;50.00;98228.94;7053646;28;20285;-77
2023/03/25 14:43:02;;;;;;;2.67;2.10;;;;;;;15.73;47.46;98225.31;7069787;28;20600;-78
2023/03/25 14:46:24;;;;;;;2.83;1.57;;;;;;;16.16;44.39;98225.31;7056269;28;20725;-77
2023/03/25 14:49:53;;;;;;;1.90;1.80;;;;;;;16.06;44.16;98211.63;7053144;28;20611;-75
2023/03/25 14:53:16;;;;;;;4.07;1.80;;;;;;;15.71;43.04;98199.47;7079710;27;20248;-77
2023/03/25 14:56:38;;;;;;;2.57;1.40;;;;;;;16.35;43.64;98196.69;7082000;27;20705;-77
2023/03/25 15:00:08;;;;;;;4.07;1.40;;;;;;;16.55;41.71;98187.94;7083148;27;20294;-76
2023/03/25 15:03:34;;;;;;;2.20;1.40;;;;;;;17.18;41.68;98175.13;7084682;27;20708;-77
2023/03/25 15:06:56;;;;;;;2.50;1.30;;;;;;;17.32;41.32;98187.22;7081910;27;20677;-79
2023/03/25 15:10:28;;;;;;;2.83;1.30;;;;;;;17.21;39.15;98180.03;7077890;27;20211;-79
2023/03/25 15:13:52;;;;;;;1.70;1.50;;;;;;;17.66;40.23;98184.97;7072320;27;20234;-80
2023/03/25 15:17:42;;;;;;;2.90;1.40;;;;;;;17.16;39.13;98187.38;7082328;27;20223;-78
2023/03/25 15:21:04;;;;;;;3.67;1.40;;;;;;;17.40;38.32;98173.09;7081636;27;20208;-78
2023/03/25 15:24:27;;;;;;;2.03;1.20;;;;;;;17.56;36.99;98183.03;7082725;27;20306;-78
2023/03/25 15:28:02;;;;;;;2.53;1.43;;;;;;;17.81;37.58;98169.50;7077337;27;20210;-78
2023/03/25 15:31:36;;;;;;;3.63;1.70;;;;;;;17.42;37.30;98172.84;7054596;27;20325;-77
2023/03/25 15:35:13;;;;;;;1.63;1.40;;;;;;;17.24;38.14;98171.38;7057057;28;20201;-78
2023/03/25 15:38:46;;;;;;;2.37;1.40;;;;;;;17.07;37.41;98162.53;7057118;28;20311;-79
2023/03/25 15:42:25;;;;;;;1.60;1.50;;;;;;;17.00;37.38;98170.09;7057635;28;20295;-78
2023/03/25 15:46:29;;;;;;;5.37;1.97;;;;;;;16.65;38.32;98148.03;7076165;27;20348;-79
2023/03/25 15:50:13;;;;;;;2.87;1.60;;;;;;;17.15;37.11;98180.28;7083911;27;20697;-78
2023/03/25 15:53:58;;;;;;;2.67;1.67;;;;;;;17.01;37.79;98143.69;7078888;27;21724;-79
2023/03/25 15:57:23;;;;;;;2.30;1.60;;;;;;;17.65;36.41;98183.34;7075762;27;20232;-78
2023/03/25 16:00:47;;;;;;;1.83;1.30;;;;;;;17.36;36.62;98180.16;7084433;27;20235;-79
2023/03/25 16:04:11;;;;;;;4.67;1.60;;;;;;;17.27;36.57;98173.56;7084373;27;20725;-80
2023/03/25 16:07:35;;;;;;;1.70;1.30;;;;;;;16.85;37.14;98190.94;7083817;27;20207;-79